createdAt,value
2019-04-16T00:04:31.104Z,65.60
2019-04-16T00:07:03.193Z,65.10
2019-04-16T00:09:35.348Z,65.20
2019-04-16T00:12:07.625Z,65.10
2019-04-16T00:14:39.835Z,65.20
2019-04-16T00:17:13.188Z,65.00
2019-04-16T00:19:45.415Z,65.20
2019-04-16T00:22:17.376Z,65.70
2019-04-16T00:24:49.052Z,65.40
2019-04-16T00:27:19.908Z,65.20
2019-04-16T00:29:50.626Z,65.10
2019-04-16T00:32:22.498Z,66.00
2019-04-16T00:34:53.444Z,66.50
2019-04-16T00:37:24.125Z,65.90
2019-04-16T00:39:56.019Z,65.60
2019-04-16T00:42:27.108Z,65.20
2019-04-16T00:44:57.819Z,65.50
2019-04-16T00:47:28.627Z,66.20
2019-04-16T00:49:59.856Z,65.90
2019-04-16T00:52:30.855Z,65.40
2019-04-16T00:55:01.791Z,65.60
2019-04-16T00:57:32.542Z,65.50
2019-04-16T01:00:03.284Z,65.40
2019-04-16T01:02:35.157Z,65.60
2019-04-16T01:05:07.449Z,65.40
2019-04-16T01:07:38.238Z,65.40
2019-04-16T01:10:09.152Z,65.50
2019-04-16T01:12:40.451Z,65.40
2019-04-16T01:15:11.382Z,66.40
2019-04-16T01:17:42.143Z,65.50
2019-04-16T01:20:13.151Z,65.70
2019-04-16T01:22:46.603Z,65.30
2019-04-16T01:25:16.058Z,65.80
2019-04-16T01:27:48.164Z,66.00
2019-04-16T01:30:20.164Z,65.90
2019-04-16T01:32:52.506Z,66.10
2019-04-16T01:35:24.744Z,65.60
2019-04-16T01:37:57.456Z,65.70
2019-04-16T01:40:29.935Z,65.60
2019-04-16T01:43:00.564Z,65.40
2019-04-16T01:45:31.329Z,65.10
2019-04-16T01:48:06.891Z,65.50
2019-04-16T01:50:34.113Z,64.30
2019-04-16T01:53:05.095Z,63.80
2019-04-16T01:55:35.673Z,63.70
2019-04-16T01:58:06.501Z,63.50
2019-04-16T02:00:39.228Z,63.30
2019-04-16T02:03:09.526Z,63.20
2019-04-16T02:05:40.430Z,62.80
2019-04-16T02:08:11.149Z,62.60
2019-04-16T02:10:44.505Z,62.30
2019-04-16T02:13:15.932Z,62.10
2019-04-16T02:15:46.719Z,61.90
2019-04-16T02:18:17.780Z,61.70
2019-04-16T02:20:48.529Z,61.50
2019-04-16T02:23:19.308Z,61.30
2019-04-16T02:25:51.305Z,61.00
2019-04-16T02:28:22.305Z,60.80
2019-04-16T02:30:53.172Z,60.70
2019-04-16T02:33:24.801Z,60.50
2019-04-16T02:35:55.557Z,60.00
2019-04-16T02:38:26.347Z,60.00
2019-04-16T02:40:57.087Z,60.00
2019-04-16T02:43:28.025Z,59.90
2019-04-16T02:45:59.483Z,59.90
2019-04-16T02:48:30.398Z,59.60
2019-04-16T02:51:07.323Z,59.30
2019-04-16T02:53:37.046Z,59.20
2019-04-16T02:56:09.568Z,59.10
2019-04-16T02:58:41.686Z,58.60
2019-04-16T03:01:13.842Z,58.40
2019-04-16T03:03:46.076Z,58.50
2019-04-16T03:06:16.800Z,58.50
2019-04-16T03:08:47.938Z,58.30
2019-04-16T03:11:18.767Z,58.20
2019-04-16T03:13:49.392Z,58.20
2019-04-16T03:16:21.494Z,57.70
2019-04-16T03:18:53.677Z,57.80
2019-04-16T03:21:27.242Z,57.60
2019-04-16T03:23:56.788Z,57.50
2019-04-16T03:26:27.569Z,57.50
2019-04-16T03:28:59.075Z,57.00
2019-04-16T03:31:30.485Z,57.10
2019-04-16T03:34:01.259Z,57.20
2019-04-16T03:36:31.955Z,57.20
2019-04-16T03:39:02.864Z,57.20
2019-04-16T03:41:33.604Z,56.80
2019-04-16T03:44:05.107Z,56.80
2019-04-16T03:46:35.777Z,56.50
2019-04-16T03:49:06.653Z,56.40
2019-04-16T03:51:37.390Z,56.60
2019-04-16T03:54:08.004Z,56.60
2019-04-16T03:56:38.792Z,56.60
2019-04-16T03:59:11.597Z,56.50
2019-04-16T04:01:45.567Z,55.90
2019-04-16T04:04:14.415Z,55.80
2019-04-16T04:06:45.216Z,56.00
2019-04-16T04:09:18.921Z,55.10
2019-04-16T04:11:48.353Z,55.00
2019-04-16T04:14:22.404Z,55.00
2019-04-16T04:16:51.274Z,55.00
2019-04-16T04:19:21.951Z,55.20
2019-04-16T04:21:53.702Z,55.20
2019-04-16T04:24:24.691Z,55.10
2019-04-16T04:26:55.590Z,55.10
2019-04-16T04:29:27.608Z,54.00
2019-04-16T04:32:03.088Z,54.30
2019-04-16T04:34:30.340Z,54.50
2019-04-16T04:37:02.683Z,54.20
2019-04-16T04:39:32.978Z,54.50
2019-04-16T04:42:03.964Z,54.00
2019-04-16T04:44:36.890Z,54.50
2019-04-16T04:47:07.058Z,54.40
2019-04-16T04:49:37.906Z,54.20
2019-04-16T04:52:13.550Z,54.20
2019-04-16T04:54:41.437Z,54.20
2019-04-16T04:57:12.203Z,54.30
2019-04-16T04:59:42.914Z,53.90
2019-04-16T05:02:14.593Z,53.30
2019-04-16T05:04:49.650Z,53.30
2019-04-16T05:07:20.831Z,53.20
2019-04-16T05:09:51.836Z,53.30
2019-04-16T05:12:22.610Z,53.50
2019-04-16T05:14:57.812Z,53.40
2019-04-16T05:17:28.392Z,53.50
2019-04-16T05:19:59.716Z,53.60
2019-04-16T05:22:32.926Z,53.30
2019-04-16T05:25:02.853Z,53.70
2019-04-16T05:27:33.614Z,53.80
2019-04-16T05:30:04.712Z,53.00
2019-04-16T05:32:36.363Z,53.20
2019-04-16T05:35:10.253Z,53.30
2019-04-16T05:37:40.380Z,53.30
2019-04-16T05:40:11.386Z,53.10
2019-04-16T05:42:42.109Z,53.30
2019-04-16T05:45:13.335Z,53.20
2019-04-16T05:47:48.738Z,53.30
2019-04-16T05:50:16.787Z,53.30
2019-04-16T05:52:47.824Z,53.30
2019-04-16T05:55:20.101Z,53.30
2019-04-16T05:57:51.999Z,53.30
2019-04-16T06:00:24.413Z,52.90
2019-04-16T06:02:55.323Z,53.20
2019-04-16T06:05:27.918Z,53.30
2019-04-16T06:07:59.357Z,52.90
2019-04-16T06:10:30.151Z,52.30
2019-04-16T06:13:02.392Z,52.80
2019-04-16T06:15:35.853Z,52.70
2019-04-16T06:18:06.432Z,52.70
2019-04-16T06:20:38.898Z,52.00
2019-04-16T06:23:10.899Z,52.00
2019-04-16T06:25:43.437Z,52.40
2019-04-16T06:28:15.455Z,52.20
2019-04-16T06:30:47.341Z,52.20
2019-04-16T06:33:19.369Z,52.50
2019-04-16T06:35:51.378Z,52.10
2019-04-16T06:38:22.001Z,51.10
2019-04-16T06:40:54.967Z,50.90
2019-04-16T06:43:27.359Z,50.40
2019-04-16T06:45:59.548Z,50.20
2019-04-16T06:48:31.634Z,50.80
2019-04-16T06:51:03.673Z,50.30
2019-04-16T06:53:35.720Z,50.40
2019-04-16T06:56:08.687Z,50.10
2019-04-16T06:58:50.947Z,50.10
2019-04-16T07:01:14.810Z,50.20
2019-04-16T07:03:46.985Z,50.30
2019-04-16T07:06:18.985Z,49.50
2019-04-16T07:08:51.052Z,49.80
2019-04-16T07:11:23.154Z,50.10
2019-04-16T07:13:54.082Z,49.00
2019-04-16T07:16:27.927Z,49.30
2019-04-16T07:18:57.116Z,49.40
2019-04-16T07:21:27.820Z,49.40
2019-04-16T07:23:59.365Z,48.50
2019-04-16T07:26:30.429Z,48.50
2019-04-16T07:29:02.587Z,47.90
2019-04-16T07:31:35.111Z,48.30
2019-04-16T07:34:07.330Z,48.40
2019-04-16T07:36:39.566Z,47.70
2019-04-16T07:39:13.338Z,47.60
2019-04-16T07:41:45.592Z,47.10
2019-04-16T07:44:17.709Z,47.40
2019-04-16T07:46:50.064Z,47.40
2019-04-16T07:49:23.483Z,46.60
2019-04-16T07:51:55.516Z,47.20
2019-04-16T07:54:27.522Z,45.60
2019-04-16T07:56:58.353Z,45.90
2019-04-16T07:59:31.985Z,45.90
2019-04-16T08:02:01.103Z,45.00
2019-04-16T08:04:35.271Z,45.80
2019-04-16T08:07:04.077Z,46.00
2019-04-16T08:09:34.847Z,47.00
2019-04-16T08:12:10.735Z,46.80
2019-04-16T08:14:38.045Z,46.50
2019-04-16T08:17:09.566Z,46.60
2019-04-16T08:19:40.285Z,45.10
2019-04-16T08:22:15.448Z,45.80
2019-04-16T08:24:44.439Z,45.90
2019-04-16T08:27:18.996Z,45.20
2019-04-16T08:29:47.370Z,45.00
2019-04-16T08:32:18.308Z,45.30
2019-04-16T08:34:49.175Z,45.20
2019-04-16T08:37:19.749Z,45.70
2019-04-16T08:39:50.652Z,45.60
2019-04-16T08:42:24.371Z,45.50
2019-04-16T08:44:53.519Z,45.10
2019-04-16T08:47:25.018Z,45.40
2019-04-16T08:49:56.228Z,44.90
2019-04-16T08:52:27.034Z,45.00
2019-04-16T08:54:57.850Z,45.10
2019-04-16T08:57:31.777Z,45.00
2019-04-16T09:00:00.807Z,44.60
2019-04-16T09:02:31.420Z,44.20
2019-04-16T09:05:05.887Z,44.70
2019-04-16T09:07:35.760Z,45.00
2019-04-16T09:10:17.372Z,45.40
2019-04-16T09:12:45.634Z,45.40
2019-04-16T09:15:15.872Z,45.00
2019-04-16T09:17:48.058Z,44.80
2019-04-16T09:20:22.952Z,45.50
2019-04-16T09:22:53.622Z,45.50
2019-04-16T09:25:25.793Z,45.90
2019-04-16T09:28:00.774Z,46.50
2019-04-16T09:30:33.518Z,46.40
2019-04-16T09:33:05.601Z,46.30
2019-04-16T09:35:37.682Z,46.50
2019-04-16T09:38:13.027Z,46.70
2019-04-16T09:40:43.339Z,47.00
2019-04-16T09:43:18.515Z,47.30
2019-04-16T09:45:49.532Z,47.40
2019-04-16T09:48:20.614Z,47.80
2019-04-16T09:50:51.464Z,47.90
2019-04-16T09:53:32.648Z,48.00
2019-04-16T09:55:54.567Z,48.10
2019-04-16T09:58:26.663Z,48.30
2019-04-16T10:00:58.758Z,48.40
2019-04-16T10:03:30.846Z,48.40
2019-04-16T10:06:05.100Z,48.40
2019-04-16T10:08:34.115Z,49.40
2019-04-16T10:11:06.174Z,48.80
2019-04-16T10:13:37.388Z,48.90
2019-04-16T10:16:08.435Z,49.10
2019-04-16T10:18:39.308Z,49.20
2019-04-16T10:21:10.142Z,49.30
2019-04-16T10:23:42.402Z,49.30
2019-04-16T10:26:13.739Z,49.40
2019-04-16T10:28:45.836Z,49.30
2019-04-16T10:31:17.996Z,49.20
2019-04-16T10:33:48.910Z,49.40
2019-04-16T10:36:19.924Z,49.50
2019-04-16T10:38:52.289Z,49.70
2019-04-16T10:41:24.520Z,49.80
2019-04-16T10:43:56.710Z,50.00
2019-04-16T10:46:29.000Z,50.20
2019-04-16T10:49:01.227Z,50.30
2019-04-16T10:51:33.213Z,51.10
2019-04-16T10:54:05.772Z,50.50
2019-04-16T10:56:37.930Z,50.60
2019-04-16T10:59:10.323Z,50.70
2019-04-16T11:01:42.379Z,50.70
2019-04-16T11:04:14.601Z,50.80
2019-04-16T11:06:46.648Z,50.90
2019-04-16T11:09:17.271Z,51.00
2019-04-16T11:11:48.333Z,51.10
2019-04-16T11:14:18.949Z,51.20
2019-04-16T11:16:51.165Z,51.30
2019-04-16T11:19:22.243Z,51.50
2019-04-16T11:21:52.980Z,51.70
2019-04-16T11:24:23.690Z,51.80
2019-04-16T11:26:54.236Z,51.90
2019-04-16T11:29:24.983Z,52.00
2019-04-16T11:31:55.887Z,52.10
2019-04-16T11:34:26.916Z,52.30
2019-04-16T11:36:58.512Z,52.30
2019-04-16T11:39:29.486Z,52.40
2019-04-16T11:42:00.444Z,52.60
2019-04-16T11:44:31.295Z,52.80
2019-04-16T11:47:02.087Z,53.00
2019-04-16T11:49:32.775Z,53.10
2019-04-16T11:52:03.550Z,53.60
2019-04-16T11:54:34.574Z,53.40
2019-04-16T11:57:05.564Z,53.70
2019-04-16T11:59:38.228Z,54.00
2019-04-16T12:02:09.886Z,54.00
2019-04-16T12:04:40.447Z,54.20
2019-04-16T12:07:12.537Z,54.10
2019-04-16T12:09:44.655Z,54.10
2019-04-16T12:12:16.951Z,54.10
2019-04-16T12:14:49.222Z,54.20
2019-04-16T12:17:21.360Z,54.30
2019-04-16T12:19:53.504Z,54.30
2019-04-16T12:22:25.892Z,54.60
2019-04-16T12:24:58.062Z,54.80
2019-04-16T12:27:30.088Z,55.10
2019-04-16T12:30:00.623Z,55.50
2019-04-16T12:32:32.713Z,55.60
2019-04-16T12:35:04.879Z,55.50
2019-04-16T12:37:37.538Z,55.60
2019-04-16T12:40:10.827Z,55.40
2019-04-16T12:42:43.157Z,56.50
2019-04-16T12:45:15.725Z,56.40
2019-04-16T12:47:47.788Z,57.10
2019-04-16T12:50:20.033Z,57.20
2019-04-16T12:52:52.007Z,57.40
2019-04-16T12:55:24.196Z,57.20
2019-04-16T12:57:58.940Z,57.00
2019-04-16T13:00:31.706Z,56.80
2019-04-16T13:03:03.301Z,56.90
2019-04-16T13:05:35.582Z,57.20
2019-04-16T13:08:07.898Z,57.20
2019-04-16T13:10:39.995Z,57.10
2019-04-16T13:13:11.917Z,57.10
2019-04-16T13:15:43.971Z,57.00
2019-04-16T13:18:16.042Z,57.00
2019-04-16T13:20:48.292Z,57.00
2019-04-16T13:23:20.552Z,57.20
2019-04-16T13:25:53.250Z,57.20
2019-04-16T13:28:24.010Z,57.50
2019-04-16T13:30:54.956Z,57.30
2019-04-16T13:33:25.827Z,57.20
2019-04-16T13:35:56.576Z,57.00
2019-04-16T13:38:28.878Z,57.10
2019-04-16T13:41:01.793Z,56.90
2019-04-16T13:43:33.777Z,57.10
2019-04-16T13:46:05.153Z,57.00
2019-04-16T13:48:37.501Z,57.60
2019-04-16T13:51:12.646Z,57.40
2019-04-16T13:53:43.116Z,57.20
2019-04-16T13:56:18.517Z,57.10
2019-04-16T13:58:48.738Z,57.00
2019-04-16T14:01:19.183Z,57.50
2019-04-16T14:03:50.004Z,57.70
2019-04-16T14:06:20.729Z,57.60
2019-04-16T14:08:51.655Z,57.60
2019-04-16T14:11:22.440Z,57.60
2019-04-16T14:13:53.306Z,57.70
2019-04-16T14:16:24.223Z,57.80
2019-04-16T14:18:54.929Z,58.10
2019-04-16T14:21:25.804Z,58.00
2019-04-16T14:23:56.419Z,58.10
2019-04-16T14:26:27.336Z,58.20
2019-04-16T14:28:58.201Z,58.20
2019-04-16T14:31:29.200Z,58.10
2019-04-16T14:34:01.343Z,58.10
2019-04-16T14:36:32.091Z,58.10
2019-04-16T14:39:06.763Z,58.00
2019-04-16T14:41:36.043Z,58.00
2019-04-16T14:44:08.322Z,58.20
2019-04-16T14:46:39.238Z,58.40
2019-04-16T14:49:09.903Z,58.50
2019-04-16T14:51:40.676Z,58.20
2019-04-16T14:54:11.112Z,58.90
2019-04-16T14:56:43.273Z,58.90
2019-04-16T14:59:29.836Z,58.70
2019-04-16T15:01:48.730Z,59.60
2019-04-16T15:04:20.846Z,59.50
2019-04-16T15:06:52.732Z,59.40
2019-04-16T15:09:24.628Z,59.20
2019-04-16T15:11:58.231Z,59.10
2019-04-16T15:14:30.110Z,59.10
2019-04-16T15:17:02.290Z,59.00
2019-04-16T15:19:34.215Z,58.90
2019-04-16T15:22:06.969Z,58.70
2019-04-16T15:24:39.255Z,58.70
2019-04-16T15:27:09.788Z,58.70
2019-04-16T15:29:41.999Z,58.70
2019-04-16T15:32:13.999Z,59.60
2019-04-16T15:34:46.082Z,58.90
2019-04-16T15:37:18.243Z,60.00
2019-04-16T15:39:50.347Z,59.90
2019-04-16T15:42:22.388Z,60.10
2019-04-16T15:44:56.160Z,60.10
2019-04-16T15:47:26.369Z,60.50
2019-04-16T15:49:58.546Z,60.20
2019-04-16T15:52:30.723Z,60.40
2019-04-16T15:55:02.698Z,60.90
2019-04-16T15:57:33.019Z,61.30
2019-04-16T16:00:05.204Z,62.20
2019-04-16T16:02:37.202Z,61.40
2019-04-16T16:05:10.316Z,61.30
2019-04-16T16:07:42.481Z,62.10
2019-04-16T16:10:14.755Z,62.20
2019-04-16T16:12:45.754Z,61.40
2019-04-16T16:15:16.676Z,61.70
2019-04-16T16:17:47.642Z,61.50
2019-04-16T16:20:18.527Z,61.70
2019-04-16T16:22:49.428Z,61.40
2019-04-16T16:25:20.028Z,61.40
2019-04-16T16:27:50.885Z,61.40
2019-04-16T16:30:21.690Z,61.20
2019-04-16T16:32:52.418Z,61.20
2019-04-16T16:35:23.158Z,62.10
2019-04-16T16:37:54.067Z,61.80
2019-04-16T16:40:24.819Z,61.00
2019-04-16T16:42:55.358Z,60.50
2019-04-16T16:45:27.364Z,60.20
2019-04-16T16:47:58.152Z,60.10
2019-04-16T16:50:29.321Z,59.70
2019-04-16T16:53:01.396Z,59.50
2019-04-16T16:55:33.713Z,59.30
2019-04-16T16:58:05.875Z,59.30
2019-04-16T17:00:37.885Z,59.10
2019-04-16T17:03:10.380Z,59.00
2019-04-16T17:05:42.769Z,58.90
2019-04-16T17:08:13.551Z,58.80
2019-04-16T17:10:44.428Z,58.80
2019-04-16T17:13:18.931Z,58.60
2019-04-16T17:15:47.429Z,58.60
2019-04-16T17:18:18.217Z,58.50
2019-04-16T17:20:50.416Z,58.30
2019-04-16T17:23:21.029Z,58.30
2019-04-16T17:25:51.746Z,58.20
2019-04-16T17:28:22.506Z,58.10
2019-04-16T17:30:53.518Z,58.10
2019-04-16T17:33:24.172Z,58.10
2019-04-16T17:35:55.135Z,58.10
2019-04-16T17:38:25.956Z,58.10
2019-04-16T17:40:59.718Z,58.00
2019-04-16T17:43:31.540Z,58.40
2019-04-16T17:46:03.613Z,58.00
2019-04-16T17:48:35.782Z,57.90
2019-04-16T17:51:07.821Z,58.00
2019-04-16T17:53:39.883Z,58.20
2019-04-16T17:56:12.046Z,58.20
2019-04-16T17:58:44.439Z,58.30
2019-04-16T18:01:16.443Z,58.50
2019-04-16T18:03:48.508Z,58.70
2019-04-16T18:06:18.972Z,58.80
2019-04-16T18:08:50.957Z,58.70
2019-04-16T18:11:23.212Z,58.80
2019-04-16T18:13:55.349Z,58.90
2019-04-16T18:16:27.591Z,59.00
2019-04-16T18:18:59.689Z,59.00
2019-04-16T18:21:31.839Z,59.20
2019-04-16T18:24:04.020Z,59.10
2019-04-16T18:26:34.301Z,59.60
2019-04-16T18:29:04.789Z,59.40
2019-04-16T18:31:36.851Z,59.40
2019-04-16T18:34:09.206Z,59.60
2019-04-16T18:36:40.785Z,59.60
2019-04-16T18:39:12.871Z,59.60
2019-04-16T18:41:45.098Z,59.60
2019-04-16T18:44:17.185Z,59.80
2019-04-16T18:46:49.330Z,61.30
2019-04-16T18:49:21.489Z,60.20
2019-04-16T18:51:52.551Z,60.20
2019-04-16T18:54:23.313Z,60.00
2019-04-16T18:56:54.278Z,60.10
2019-04-16T18:59:25.210Z,60.20
2019-04-16T19:01:57.085Z,60.60
2019-04-16T19:04:27.851Z,60.50
2019-04-16T19:06:58.648Z,61.00
2019-04-16T19:09:29.345Z,61.30
2019-04-16T19:12:00.328Z,61.30
2019-04-16T19:14:30.901Z,61.00
2019-04-16T19:17:01.740Z,61.30
2019-04-16T19:19:32.587Z,61.20
2019-04-16T19:22:03.336Z,61.00
2019-04-16T19:24:34.235Z,60.80
2019-04-16T19:27:05.131Z,61.00
2019-04-16T19:29:36.004Z,60.80
2019-04-16T19:32:06.890Z,61.00
2019-04-16T19:34:40.974Z,61.60
2019-04-16T19:37:09.971Z,61.40
2019-04-16T19:39:40.583Z,62.00
2019-04-16T19:42:11.500Z,62.80
2019-04-16T19:44:42.645Z,62.40
2019-04-16T19:47:13.372Z,62.10
2019-04-16T19:49:44.214Z,62.10
2019-04-16T19:52:17.334Z,62.20
2019-04-16T19:54:47.219Z,62.20
2019-04-16T19:57:17.854Z,62.60
2019-04-16T19:59:48.927Z,63.10
2019-04-16T20:02:19.661Z,62.80
2019-04-16T20:04:50.877Z,63.30
2019-04-16T20:07:21.765Z,63.90
2019-04-16T20:09:53.270Z,64.10
2019-04-16T20:12:25.094Z,64.40
2019-04-16T20:14:56.335Z,65.00
2019-04-16T20:17:26.974Z,64.70
2019-04-16T20:19:59.431Z,64.30
2019-04-16T20:22:32.038Z,64.40
2019-04-16T20:25:02.881Z,64.70
2019-04-16T20:27:36.241Z,65.50
2019-04-16T20:30:06.931Z,64.80
2019-04-16T20:32:37.722Z,64.40
2019-04-16T20:35:08.642Z,64.70
2019-04-16T20:37:39.353Z,65.80
2019-04-16T20:40:10.088Z,64.80
2019-04-16T20:42:40.750Z,64.80
2019-04-16T20:45:12.553Z,64.80
2019-04-16T20:47:43.103Z,64.90
2019-04-16T20:50:14.184Z,64.90
2019-04-16T20:52:44.873Z,65.10
2019-04-16T20:55:16.726Z,65.70
2019-04-16T20:57:47.581Z,65.40
2019-04-16T21:00:19.862Z,65.10
2019-04-16T21:02:51.099Z,64.90
2019-04-16T21:05:22.774Z,64.80
2019-04-16T21:07:54.188Z,65.00
2019-04-16T21:10:24.860Z,64.70
2019-04-16T21:12:56.033Z,64.20
2019-04-16T21:15:27.435Z,64.40
2019-04-16T21:17:58.848Z,63.90
2019-04-16T21:20:29.697Z,64.20
2019-04-16T21:23:01.524Z,64.60
2019-04-16T21:25:32.476Z,64.70
2019-04-16T21:28:05.110Z,64.50
2019-04-16T21:30:36.177Z,64.70
2019-04-16T21:33:08.717Z,64.60
2019-04-16T21:35:40.924Z,64.30
2019-04-16T21:38:11.322Z,64.40
2019-04-16T21:40:42.158Z,64.60
2019-04-16T21:43:12.972Z,64.10
2019-04-16T21:45:45.572Z,64.20
2019-04-16T21:48:15.895Z,64.60
2019-04-16T21:50:47.560Z,66.10
2019-04-16T21:53:18.602Z,66.70
2019-04-16T21:55:49.250Z,67.20
2019-04-16T21:58:19.973Z,67.90
2019-04-16T22:00:50.706Z,68.00
2019-04-16T22:03:23.038Z,67.70
2019-04-16T22:05:53.631Z,68.30
2019-04-16T22:08:29.449Z,68.20
2019-04-16T22:10:56.495Z,68.80
2019-04-16T22:13:27.301Z,69.50
2019-04-16T22:15:58.686Z,69.70
2019-04-16T22:18:29.566Z,70.30
2019-04-16T22:21:00.499Z,69.40
2019-04-16T22:23:31.191Z,69.80
2019-04-16T22:26:03.000Z,69.80
2019-04-16T22:28:34.116Z,69.30
